Terminal Aerodrome Forecast
Issued by NWS

Home | Current Version | Previous Version | Text Only | Print | Product List | Glossary On
Versions: 1 2 3 4 5 6 7 8 9 10 11 12 13 14 15
704
FTUS41 KPBZ 090527
TAFLBE
TAF
KLBE 090527Z 0906/1006 25014G22KT P6SM -SHSN OVC025
      TEMPO 0906/0908 OVC035
     FM092000 27012G20KT P6SM VCSH OVC035
     FM092200 27012G20KT P6SM VCSH OVC025=

USA.gov is the U.S. government's official web portal to all federal, state and local government web resources and services.